Trimble, Missouri
Current Conditions -  °F | °C
As of 12:53 AM on Monday 24 Nov 2014 (Local Time) from KMCI Reporting Station
Overcast Overcast  
Wind Chill: -2°   Ceiling: 13000
Heat Index:   Visibility: 10mi
Dew Point: -1°   Wind: 21mph
Humidity: 70%   Direction: 320°NW
Pressure: 29.49"   Gusts: 31mph
Location:  39.47°N, 94.56°W
Report Text: KMCI 240653Z 32018G27KT 10SM SCT032 OVC130 04/M01 A2949 RMK AO2 PK WND 32032/0604 SLP986 T00391011 $
Loading
Personal Weather Stations






























Interactive Weather Map New forecast layout! Learn more

10-Day Weather Forecast

Advertisements
Track Severe Weather on mobile